createdAt,value
2022-09-28T00:00:03.472Z,7.40
2022-09-28T00:02:40.566Z,7.70
2022-09-28T00:05:09.088Z,8.18
2022-09-28T00:07:36.616Z,8.05
2022-09-28T00:10:04.365Z,7.50
2022-09-28T00:12:32.104Z,8.07
2022-09-28T00:14:59.727Z,8.27
2022-09-28T00:17:28.613Z,7.78
2022-09-28T00:19:57.955Z,8.38
2022-09-28T00:22:25.492Z,7.68
2022-09-28T00:24:53.054Z,7.78
2022-09-28T00:27:20.690Z,8.25
2022-09-28T00:29:48.289Z,8.80
2022-09-28T00:32:16.603Z,8.15
2022-09-28T00:34:46.659Z,8.43
2022-09-28T00:37:15.308Z,7.97
2022-09-28T00:39:43.903Z,7.57
2022-09-28T00:42:14.259Z,7.63
2022-09-28T00:44:45.272Z,8.10
2022-09-28T00:47:44.359Z,8.10
2022-09-28T00:50:19.199Z,8.40
2022-09-28T00:52:53.129Z,8.13
2022-09-28T00:55:26.204Z,7.45
2022-09-28T00:57:57.862Z,7.53
2022-09-28T01:00:25.612Z,7.90
2022-09-28T01:02:53.400Z,7.45
2022-09-28T01:05:24.171Z,7.57
2022-09-28T01:07:52.164Z,7.78
2022-09-28T01:10:19.758Z,7.68
2022-09-28T01:12:47.371Z,7.65
2022-09-28T01:15:15.810Z,7.63
2022-09-28T01:17:56.553Z,7.53
2022-09-28T01:20:55.748Z,7.57
2022-09-28T01:23:49.528Z,8.32
2022-09-28T01:26:50.432Z,8.82
2022-09-28T01:29:27.619Z,9.32
2022-09-28T01:32:02.248Z,9.68
2022-09-28T01:34:34.463Z,9.68
2022-09-28T01:37:05.271Z,9.02
2022-09-28T01:39:38.675Z,8.80
2022-09-28T01:42:11.896Z,8.52
2022-09-28T01:44:43.910Z,9.23
2022-09-28T01:47:14.971Z,9.88
2022-09-28T01:49:46.904Z,9.35
2022-09-28T01:54:51.540Z,9.30
2022-09-28T01:57:26.550Z,9.88
2022-09-28T02:00:00.369Z,9.32
2022-09-28T02:02:34.923Z,9.20
2022-09-28T02:05:08.807Z,9.02
2022-09-28T02:07:42.389Z,8.88
2022-09-28T02:10:15.941Z,8.65
2022-09-28T02:12:49.648Z,8.27
2022-09-28T02:15:21.540Z,8.65
2022-09-28T02:17:50.040Z,8.13
2022-09-28T02:20:18.210Z,8.38
2022-09-28T02:22:51.479Z,8.35
2022-09-28T02:25:25.862Z,8.52
2022-09-28T02:28:00.892Z,8.07
2022-09-28T02:30:31.295Z,7.68
2022-09-28T02:33:04.361Z,8.00
2022-09-28T02:35:33.890Z,7.95
2022-09-28T02:38:01.542Z,7.82
2022-09-28T02:40:33.222Z,7.95
2022-09-28T02:43:10.452Z,8.15
2022-09-28T02:45:52.061Z,7.20
2022-09-28T02:48:43.912Z,8.32
2022-09-28T02:51:22.971Z,7.63
2022-09-28T02:54:18.514Z,7.70
2022-09-28T02:57:11.976Z,7.40
2022-09-28T02:59:48.852Z,7.28
2022-09-28T03:02:25.701Z,7.70
2022-09-28T03:05:16.570Z,7.32
2022-09-28T03:07:51.493Z,7.15
2022-09-28T03:10:26.794Z,8.02
2022-09-28T03:12:55.901Z,7.97
2022-09-28T03:15:27.320Z,8.00
2022-09-28T03:17:57.463Z,7.75
2022-09-28T03:20:25.799Z,7.80
2022-09-28T03:23:12.703Z,7.72
2022-09-28T03:25:41.558Z,7.70
2022-09-28T03:28:09.396Z,7.80
2022-09-28T03:30:43.334Z,7.82
2022-09-28T03:33:11.218Z,8.10
2022-09-28T03:35:39.563Z,8.15
2022-09-28T03:38:07.182Z,7.82
2022-09-28T03:40:38.623Z,8.38
2022-09-28T03:43:06.322Z,8.02
2022-09-28T03:45:34.082Z,8.45
2022-09-28T03:48:03.122Z,8.10
2022-09-28T03:50:30.804Z,8.25
2022-09-28T03:53:03.638Z,8.38
2022-09-28T03:55:31.599Z,8.23
2022-09-28T03:57:59.339Z,8.20
2022-09-28T04:00:27.481Z,8.13
2022-09-28T04:02:56.196Z,8.25
2022-09-28T04:05:25.287Z,8.43
2022-09-28T04:07:56.062Z,8.27
2022-09-28T04:10:23.934Z,8.75
2022-09-28T04:12:55.281Z,8.45
2022-09-28T04:15:23.000Z,8.63
2022-09-28T04:17:50.636Z,8.93
2022-09-28T04:20:40.944Z,8.32
2022-09-28T04:23:12.920Z,9.07
2022-09-28T04:25:40.571Z,8.88
2022-09-28T04:28:27.406Z,8.77
2022-09-28T04:30:55.079Z,10.05
2022-09-28T04:33:22.885Z,10.45
2022-09-28T04:35:51.787Z,10.10
2022-09-28T04:38:35.626Z,9.52
2022-09-28T04:41:08.035Z,10.40
2022-09-28T04:43:35.756Z,9.75
2022-09-28T04:46:05.486Z,10.23
2022-09-28T04:48:39.817Z,10.35
2022-09-28T04:51:22.441Z,10.77
2022-09-28T04:53:50.059Z,10.63
2022-09-28T04:56:20.038Z,11.05
2022-09-28T04:58:51.916Z,11.40
2022-09-28T05:01:24.268Z,11.90
2022-09-28T05:03:58.054Z,11.13
2022-09-28T05:06:35.584Z,12.23
2022-09-28T05:09:06.539Z,11.82
2022-09-28T05:11:34.351Z,12.18
2022-09-28T05:14:02.430Z,12.55
2022-09-28T05:16:33.623Z,12.52
2022-09-28T05:19:19.856Z,13.13
2022-09-28T05:21:49.155Z,12.18
2022-09-28T05:24:16.768Z,12.40
2022-09-28T05:26:49.803Z,12.35
2022-09-28T05:29:17.727Z,12.00
2022-09-28T05:31:45.451Z,11.18
2022-09-28T05:34:18.438Z,10.88
2022-09-28T05:36:46.647Z,11.05
2022-09-28T05:39:15.569Z,10.82
2022-09-28T05:41:43.394Z,10.63
2022-09-28T05:44:11.330Z,10.82
2022-09-28T05:46:39.092Z,11.07
2022-09-28T05:49:06.719Z,10.70
2022-09-28T05:51:34.289Z,10.73
2022-09-28T05:54:05.646Z,10.98
2022-09-28T05:56:37.832Z,11.63
2022-09-28T05:59:07.662Z,11.07
2022-09-28T06:01:35.422Z,11.50
2022-09-28T06:04:04.517Z,11.00
2022-09-28T06:06:32.340Z,10.88
2022-09-28T06:08:59.859Z,10.45
2022-09-28T06:11:40.040Z,10.90
2022-09-28T06:14:19.849Z,10.95
2022-09-28T06:16:47.515Z,10.98
2022-09-28T06:19:15.363Z,10.80
2022-09-28T06:22:01.246Z,10.63
2022-09-28T06:24:30.713Z,10.75
2022-09-28T06:26:59.620Z,11.35
2022-09-28T06:29:29.154Z,11.30
2022-09-28T06:31:57.744Z,11.07
2022-09-28T06:34:25.672Z,11.02
2022-09-28T06:36:53.806Z,11.57
2022-09-28T06:39:21.448Z,11.55
2022-09-28T06:41:49.103Z,11.32
2022-09-28T06:44:20.138Z,11.85
2022-09-28T06:47:06.359Z,11.18
2022-09-28T06:49:56.795Z,12.13
2022-09-28T06:52:42.900Z,13.10
2022-09-28T06:55:26.784Z,11.23
2022-09-28T06:58:01.904Z,11.70
2022-09-28T07:00:34.987Z,11.90
2022-09-28T07:03:03.316Z,12.02
2022-09-28T07:05:57.238Z,11.93
2022-09-28T07:09:14.743Z,13.00
2022-09-28T07:12:10.079Z,13.55
2022-09-28T07:14:50.191Z,13.27
2022-09-28T07:17:19.461Z,12.35
2022-09-28T07:19:52.643Z,12.98
2022-09-28T07:22:33.334Z,12.80
2022-09-28T07:25:09.433Z,13.38
2022-09-28T07:27:48.173Z,13.43
2022-09-28T07:30:39.416Z,14.18
2022-09-28T07:33:17.443Z,13.23
2022-09-28T07:35:55.644Z,13.63
2022-09-28T07:38:27.875Z,13.32
2022-09-28T07:41:13.924Z,14.07
2022-09-28T07:43:47.641Z,12.88
2022-09-28T07:46:16.774Z,13.52
2022-09-28T07:49:08.352Z,12.30
2022-09-28T07:52:01.652Z,12.80
2022-09-28T07:54:30.216Z,12.40
2022-09-28T07:57:16.297Z,12.88
2022-09-28T08:00:08.863Z,12.30
2022-09-28T08:02:43.876Z,12.70
2022-09-28T08:05:17.040Z,12.20
2022-09-28T08:07:44.682Z,12.18
2022-09-28T08:10:13.025Z,11.05
2022-09-28T08:13:06.370Z,10.60
2022-09-28T08:16:00.900Z,11.15
2022-09-28T08:18:57.729Z,10.80
2022-09-28T08:21:45.061Z,11.00
2022-09-28T08:24:13.642Z,10.48
2022-09-28T08:26:41.299Z,11.32
2022-09-28T08:29:09.177Z,10.48
2022-09-28T08:31:48.658Z,11.43
2022-09-28T08:34:34.585Z,9.68
2022-09-28T08:37:22.086Z,9.70
2022-09-28T08:40:17.263Z,9.48
2022-09-28T08:43:04.253Z,8.98
2022-09-28T08:45:54.898Z,9.15
2022-09-28T08:49:20.989Z,8.50
2022-09-28T08:52:01.923Z,9.63
2022-09-28T08:54:45.912Z,9.80
2022-09-28T08:57:23.639Z,9.02
2022-09-28T08:59:54.500Z,9.38
2022-09-28T09:02:33.315Z,9.55
2022-09-28T09:05:44.660Z,9.07
2022-09-28T09:08:38.216Z,8.77
2022-09-28T09:11:20.092Z,8.88
2022-09-28T09:14:03.811Z,8.23
2022-09-28T09:16:41.012Z,8.18
2022-09-28T09:19:51.121Z,8.20
2022-09-28T09:22:40.668Z,8.00
2022-09-28T09:25:19.734Z,8.50
2022-09-28T09:28:08.284Z,9.05
2022-09-28T09:30:46.236Z,8.13
2022-09-28T09:33:39.320Z,7.88
2022-09-28T09:36:44.340Z,8.48
2022-09-28T09:39:43.843Z,8.55
2022-09-28T09:42:49.053Z,7.97
2022-09-28T09:46:01.691Z,8.07
2022-09-28T09:48:54.015Z,8.55
2022-09-28T09:51:29.899Z,8.98
2022-09-28T09:54:02.927Z,8.95
2022-09-28T09:56:38.444Z,8.43
2022-09-28T09:59:15.212Z,9.18
2022-09-28T10:02:18.386Z,8.80
2022-09-28T10:04:57.228Z,8.40
2022-09-28T10:07:43.109Z,7.82
2022-09-28T10:10:16.804Z,7.90
2022-09-28T10:12:51.039Z,7.68
2022-09-28T10:15:23.701Z,7.32
2022-09-28T10:18:12.062Z,7.22
2022-09-28T10:20:59.944Z,7.20
2022-09-28T10:23:40.764Z,6.57
2022-09-28T10:26:25.100Z,6.60
2022-09-28T10:28:57.329Z,6.80
2022-09-28T10:31:37.186Z,6.55
2022-09-28T10:34:13.991Z,6.60
2022-09-28T10:36:50.631Z,6.70
2022-09-28T10:39:33.202Z,5.65
2022-09-28T10:42:04.204Z,6.10
2022-09-28T10:44:34.967Z,6.10
2022-09-28T10:47:30.517Z,5.70
2022-09-28T10:52:32.956Z,5.75
2022-09-28T10:55:01.462Z,6.03
2022-09-28T10:57:33.628Z,6.13
2022-09-28T11:00:08.128Z,5.57
2022-09-28T11:02:44.710Z,5.05
2022-09-28T11:05:27.739Z,5.30
2022-09-28T11:07:59.780Z,5.15
2022-09-28T11:10:37.150Z,6.07
2022-09-28T11:13:11.998Z,5.55
2022-09-28T11:15:45.127Z,4.90
2022-09-28T11:18:29.492Z,5.47
2022-09-28T11:21:13.122Z,4.60
2022-09-28T11:23:57.886Z,4.90
2022-09-28T11:26:25.890Z,5.23
2022-09-28T11:28:54.628Z,5.15
2022-09-28T11:31:34.344Z,5.63
2022-09-28T11:34:13.864Z,6.07
2022-09-28T11:37:21.958Z,5.55
2022-09-28T11:39:58.378Z,6.03
2022-09-28T11:42:36.880Z,5.90
2022-09-28T11:45:22.289Z,5.50
2022-09-28T11:47:55.271Z,5.80
2022-09-28T11:50:29.387Z,6.28
2022-09-28T11:53:11.729Z,6.78
2022-09-28T11:58:13.801Z,6.00
2022-09-28T12:03:17.412Z,4.68
2022-09-28T12:05:50.178Z,5.20
2022-09-28T12:08:25.183Z,5.18
2022-09-28T12:11:11.272Z,6.07
2022-09-28T12:14:01.702Z,6.03
2022-09-28T12:17:03.693Z,6.93
2022-09-28T12:19:24.904Z,6.30
2022-09-28T12:21:56.937Z,6.47
2022-09-28T12:26:59.147Z,6.20
2022-09-28T12:29:30.512Z,6.50
2022-09-28T12:32:10.942Z,6.40
2022-09-28T12:34:38.531Z,6.78
2022-09-28T12:37:27.122Z,6.00
2022-09-28T12:40:07.362Z,5.93
2022-09-28T12:42:53.469Z,5.45
2022-09-28T12:46:07.047Z,5.07
2022-09-28T12:49:03.039Z,5.00
2022-09-28T12:51:48.606Z,4.90
2022-09-28T12:54:38.913Z,5.10
2022-09-28T12:57:30.061Z,5.40
2022-09-28T13:00:03.735Z,4.60
2022-09-28T13:02:48.939Z,4.03
2022-09-28T13:05:40.656Z,4.53
2022-09-28T13:08:14.810Z,3.90
2022-09-28T13:10:50.137Z,4.05
2022-09-28T13:13:32.386Z,3.90
2022-09-28T13:16:05.674Z,3.28
2022-09-28T13:18:40.464Z,3.20
2022-09-28T13:21:17.051Z,3.20
2022-09-28T13:23:47.425Z,3.00
2022-09-28T13:26:27.067Z,2.78
2022-09-28T13:29:03.469Z,2.58
2022-09-28T13:31:35.956Z,2.67
2022-09-28T13:34:07.103Z,2.65
2022-09-28T13:36:40.476Z,2.53
2022-09-28T13:39:38.374Z,2.60
2022-09-28T13:42:09.034Z,2.45
2022-09-28T13:45:02.794Z,2.80
2022-09-28T13:47:51.538Z,2.63
2022-09-28T13:50:28.722Z,2.30
2022-09-28T13:53:04.414Z,2.40
2022-09-28T13:55:48.346Z,2.13
2022-09-28T13:58:23.460Z,1.90
2022-09-28T14:00:57.713Z,2.30
2022-09-28T14:03:27.752Z,2.20
2022-09-28T14:06:09.865Z,2.00
2022-09-28T14:11:49.114Z,1.83
2022-09-28T14:14:53.234Z,1.83
2022-09-28T14:17:54.786Z,1.60
2022-09-28T14:20:27.825Z,1.50
2022-09-28T14:23:15.098Z,1.60
2022-09-28T14:25:46.091Z,1.83
2022-09-28T14:28:29.567Z,1.90
2022-09-28T14:30:58.181Z,1.90
2022-09-28T14:33:30.256Z,1.90
2022-09-28T14:38:49.918Z,1.80
2022-09-28T14:41:31.190Z,1.98
2022-09-28T14:44:09.340Z,1.87
2022-09-28T14:46:45.395Z,2.00
2022-09-28T14:49:50.264Z,2.17
2022-09-28T14:52:40.219Z,2.03
2022-09-28T14:55:15.449Z,2.10
2022-09-28T14:57:43.306Z,2.25
2022-09-28T15:00:20.419Z,1.92
2022-09-28T15:02:52.838Z,2.08
2022-09-28T15:05:25.276Z,1.80
2022-09-28T15:07:54.484Z,2.03
2022-09-28T15:10:31.234Z,2.30
2022-09-28T15:13:01.192Z,2.30
2022-09-28T15:15:33.404Z,2.28
2022-09-28T15:18:09.639Z,2.10
2022-09-28T15:20:41.530Z,2.17
2022-09-28T15:23:25.336Z,2.00
2022-09-28T15:25:54.425Z,1.83
2022-09-28T15:28:24.160Z,1.88
2022-09-28T15:30:52.355Z,1.83
2022-09-28T15:33:43.891Z,1.77
2022-09-28T15:36:18.820Z,1.80
2022-09-28T15:38:54.816Z,1.80
2022-09-28T15:41:24.830Z,1.60
2022-09-28T15:44:08.363Z,1.35
2022-09-28T15:46:38.553Z,1.30
2022-09-28T15:49:08.290Z,1.40
2022-09-28T15:51:52.115Z,1.30
2022-09-28T15:54:24.822Z,1.30
2022-09-28T15:56:54.935Z,1.40
2022-09-28T15:59:31.673Z,1.50
2022-09-28T16:02:13.578Z,1.65
2022-09-28T16:04:47.997Z,1.60
2022-09-28T16:07:24.194Z,1.60
2022-09-28T16:10:01.023Z,1.52
2022-09-28T16:12:34.710Z,1.60
2022-09-28T16:15:07.546Z,1.48
2022-09-28T16:17:36.350Z,1.40
2022-09-28T16:20:18.499Z,1.30
2022-09-28T16:25:19.516Z,1.40
2022-09-28T16:27:47.108Z,1.40
2022-09-28T16:30:24.101Z,1.35
2022-09-28T16:32:54.111Z,1.20
2022-09-28T16:35:27.629Z,1.40
2022-09-28T16:38:00.231Z,1.50
2022-09-28T16:40:28.713Z,1.23
2022-09-28T16:43:00.056Z,1.50
2022-09-28T16:45:28.349Z,1.30
2022-09-28T16:47:57.566Z,1.30
2022-09-28T16:50:25.736Z,1.30
2022-09-28T16:53:19.004Z,1.30
2022-09-28T16:55:49.490Z,1.10
2022-09-28T16:58:18.462Z,1.20
2022-09-28T17:00:46.184Z,1.30
2022-09-28T17:03:15.826Z,1.20
2022-09-28T17:05:43.993Z,1.30
2022-09-28T17:08:17.326Z,1.20
2022-09-28T17:11:12.889Z,1.20
2022-09-28T17:13:38.564Z,1.30
2022-09-28T17:16:08.841Z,1.20
2022-09-28T17:18:37.750Z,1.20
2022-09-28T17:21:06.802Z,1.27
2022-09-28T17:23:35.800Z,1.10
2022-09-28T17:26:05.604Z,1.25
2022-09-28T17:28:35.931Z,1.10
2022-09-28T17:31:04.226Z,1.40
2022-09-28T17:33:31.964Z,1.10
2022-09-28T17:36:01.639Z,1.55
2022-09-28T17:38:29.836Z,1.50
2022-09-28T17:40:58.888Z,1.60
2022-09-28T17:43:26.563Z,1.45
2022-09-28T17:45:54.188Z,1.60
2022-09-28T17:48:24.170Z,1.83
2022-09-28T17:50:52.635Z,1.70
2022-09-28T17:53:20.294Z,2.00
2022-09-28T17:55:48.195Z,2.00
2022-09-28T17:58:19.205Z,1.80
2022-09-28T18:00:48.056Z,2.20
2022-09-28T18:03:17.989Z,2.47
2022-09-28T18:05:47.480Z,2.67
2022-09-28T18:08:18.008Z,2.72
2022-09-28T18:10:46.827Z,3.40
2022-09-28T18:13:14.723Z,3.97
2022-09-28T18:15:44.468Z,4.35
2022-09-28T18:18:12.880Z,4.50
2022-09-28T18:20:41.316Z,4.93
2022-09-28T18:23:08.948Z,4.57
2022-09-28T18:25:40.277Z,4.20
2022-09-28T18:28:08.092Z,3.90
2022-09-28T18:30:38.802Z,4.10
2022-09-28T18:33:08.786Z,3.88
2022-09-28T18:35:36.862Z,3.85
2022-09-28T18:38:05.106Z,3.70
2022-09-28T18:40:33.121Z,3.50
2022-09-28T18:43:00.892Z,3.35
2022-09-28T18:45:28.644Z,3.78
2022-09-28T18:47:56.370Z,3.88
2022-09-28T18:50:25.395Z,3.85
2022-09-28T18:52:52.997Z,4.00
2022-09-28T18:55:20.715Z,4.00
2022-09-28T18:57:48.601Z,4.13
2022-09-28T19:00:16.477Z,3.83
2022-09-28T19:02:44.110Z,4.22
2022-09-28T19:05:12.192Z,3.97
2022-09-28T19:07:41.129Z,3.55
2022-09-28T19:10:09.583Z,3.70
2022-09-28T19:12:37.201Z,3.75
2022-09-28T19:15:05.303Z,3.80
2022-09-28T19:17:34.049Z,3.72
2022-09-28T19:20:01.908Z,3.33
2022-09-28T19:22:30.443Z,3.80
2022-09-28T19:24:59.603Z,3.75
2022-09-28T19:27:27.129Z,3.30
2022-09-28T19:29:54.712Z,3.22
2022-09-28T19:32:22.323Z,3.17
2022-09-28T19:34:49.851Z,3.20
2022-09-28T19:37:17.436Z,3.25
2022-09-28T19:39:45.317Z,2.97
2022-09-28T19:42:14.272Z,2.60
2022-09-28T19:44:42.075Z,3.13
2022-09-28T19:47:11.533Z,3.13
2022-09-28T19:49:40.568Z,3.40
2022-09-28T19:52:15.591Z,3.38
2022-09-28T19:54:45.138Z,3.92
2022-09-28T19:57:15.752Z,4.15
2022-09-28T19:59:48.398Z,4.30
2022-09-28T20:02:18.483Z,4.80
2022-09-28T20:04:46.098Z,4.95
2022-09-28T20:07:13.830Z,5.05
2022-09-28T20:09:41.959Z,5.30
2022-09-28T20:12:09.832Z,5.00
2022-09-28T20:14:40.416Z,5.20
2022-09-28T20:17:08.596Z,5.00
2022-09-28T20:19:36.256Z,5.15
2022-09-28T20:22:03.942Z,5.03
2022-09-28T20:24:31.633Z,4.80
2022-09-28T20:27:01.041Z,4.80
2022-09-28T20:29:28.676Z,4.50
2022-09-28T20:31:57.717Z,4.70
2022-09-28T20:34:25.313Z,4.30
2022-09-28T20:36:52.861Z,4.40
2022-09-28T20:39:20.734Z,4.32
2022-09-28T20:41:49.646Z,4.03
2022-09-28T20:44:17.305Z,4.32
2022-09-28T20:46:45.140Z,4.30
2022-09-28T20:49:13.995Z,4.45
2022-09-28T20:51:41.636Z,4.45
2022-09-28T20:54:09.340Z,4.45
2022-09-28T20:56:38.191Z,4.53
2022-09-28T20:59:07.527Z,4.22
2022-09-28T21:01:35.934Z,4.40
2022-09-28T21:04:06.835Z,4.47
2022-09-28T21:06:38.145Z,4.40
2022-09-28T21:09:07.150Z,5.43
2022-09-28T21:11:35.541Z,4.57
2022-09-28T21:14:05.973Z,4.45
2022-09-28T21:16:36.013Z,4.38
2022-09-28T21:19:04.370Z,4.20
2022-09-28T21:21:32.025Z,4.93
2022-09-28T21:24:01.936Z,4.72
2022-09-28T21:26:31.850Z,5.20
2022-09-28T21:29:02.040Z,4.85
2022-09-28T21:31:32.574Z,5.05
2022-09-28T21:34:00.556Z,5.28
2022-09-28T21:36:28.121Z,5.20
2022-09-28T21:38:56.126Z,5.50
2022-09-28T21:41:25.607Z,5.43
2022-09-28T21:43:53.598Z,5.35
2022-09-28T21:46:21.286Z,5.43
2022-09-28T21:48:52.620Z,5.85
2022-09-28T21:51:20.941Z,5.55
2022-09-28T21:53:49.417Z,5.43
2022-09-28T21:56:17.408Z,5.65
2022-09-28T21:58:46.364Z,5.88
2022-09-28T22:01:16.508Z,5.68
2022-09-28T22:03:46.548Z,5.85
2022-09-28T22:06:15.252Z,5.60
2022-09-28T22:08:42.835Z,6.03
2022-09-28T22:11:12.491Z,6.18
2022-09-28T22:13:42.336Z,6.38
2022-09-28T22:16:12.047Z,6.50
2022-09-28T22:18:40.254Z,6.55
2022-09-28T22:21:11.124Z,6.35
2022-09-28T22:23:41.052Z,6.72
2022-09-28T22:26:11.624Z,6.72
2022-09-28T22:28:40.584Z,6.78
2022-09-28T22:31:08.219Z,6.47
2022-09-28T22:33:37.132Z,6.43
2022-09-28T22:36:05.240Z,6.28
2022-09-28T22:38:33.306Z,6.18
2022-09-28T22:41:01.322Z,6.90
2022-09-28T22:43:29.083Z,6.53
2022-09-28T22:46:03.179Z,6.93
2022-09-28T22:48:31.096Z,6.53
2022-09-28T22:51:00.633Z,6.80
2022-09-28T22:53:28.747Z,7.03
2022-09-28T22:55:57.639Z,7.18
2022-09-28T22:58:25.584Z,6.60
2022-09-28T23:00:53.348Z,6.80
2022-09-28T23:03:21.522Z,7.03
2022-09-28T23:05:58.148Z,6.72
2022-09-28T23:08:27.599Z,7.07
2022-09-28T23:10:55.386Z,7.25
2022-09-28T23:13:23.308Z,7.18
2022-09-28T23:15:58.152Z,6.82
2022-09-28T23:18:26.036Z,7.20
2022-09-28T23:20:54.505Z,6.90
2022-09-28T23:23:22.245Z,7.20
2022-09-28T23:25:51.240Z,7.57
2022-09-28T23:28:19.083Z,7.15
2022-09-28T23:30:47.188Z,7.53
2022-09-28T23:33:15.912Z,7.15
2022-09-28T23:35:43.948Z,7.10
2022-09-28T23:38:13.405Z,7.32
2022-09-28T23:40:41.660Z,6.90
2022-09-28T23:43:10.676Z,7.32
2022-09-28T23:45:38.223Z,7.28
2022-09-28T23:48:06.219Z,7.45
2022-09-28T23:50:33.838Z,7.82
2022-09-28T23:53:02.271Z,7.45
2022-09-28T23:55:29.773Z,7.50
2022-09-28T23:57:58.629Z,7.30
